createdAt,value
2022-11-27T00:01:19.627Z,96336.63
2022-11-27T00:03:47.819Z,96335.72
2022-11-27T00:06:17.836Z,96342.25
2022-11-27T00:09:07.383Z,96360.22
2022-11-27T00:11:35.544Z,96385.72
2022-11-27T00:14:03.302Z,96385.94
2022-11-27T00:16:31.216Z,96393.59
2022-11-27T00:18:59.498Z,96394.59
2022-11-27T00:21:32.478Z,96391.94
2022-11-27T00:24:03.613Z,96389.50
2022-11-27T00:26:37.463Z,96399.41
2022-11-27T00:29:06.136Z,96392.72
2022-11-27T00:31:35.046Z,96402.41
2022-11-27T00:34:04.737Z,96392.72
2022-11-27T00:36:35.293Z,96388.75
2022-11-27T00:39:05.465Z,96391.84
2022-11-27T00:41:33.663Z,96379.84
2022-11-27T00:44:01.504Z,96377.97
2022-11-27T00:46:32.070Z,96363.91
2022-11-27T00:49:01.094Z,96362.91
2022-11-27T00:51:29.601Z,96355.50
2022-11-27T00:53:57.413Z,96356.78
2022-11-27T00:56:28.872Z,96366.69
2022-11-27T00:58:57.251Z,96357.72
2022-11-27T01:01:27.524Z,96359.19
2022-11-27T01:03:56.526Z,96358.59
2022-11-27T01:06:24.403Z,96355.31
2022-11-27T01:08:52.184Z,96355.91
2022-11-27T01:11:22.894Z,96362.72
2022-11-27T01:13:52.541Z,96343.72
2022-11-27T01:16:22.818Z,96335.63
2022-11-27T01:18:51.821Z,96321.19
2022-11-27T01:21:21.415Z,96331.50
2022-11-27T01:23:50.357Z,96335.16
2022-11-27T01:26:19.573Z,96338.94
2022-11-27T01:28:48.127Z,96330.59
2022-11-27T01:31:19.717Z,96341.34
2022-11-27T01:33:48.076Z,96330.38
2022-11-27T01:36:16.913Z,96334.31
2022-11-27T01:38:44.692Z,96334.31
2022-11-27T01:41:16.259Z,96321.31
2022-11-27T01:43:46.024Z,96325.19
2022-11-27T01:46:31.671Z,96329.41
2022-11-27T01:49:06.270Z,96331.53
2022-11-27T01:51:34.047Z,96330.59
2022-11-27T01:54:01.916Z,96327.41
2022-11-27T01:56:30.948Z,96326.38
2022-11-27T01:59:00.638Z,96332.50
2022-11-27T02:01:29.854Z,96338.13
2022-11-27T02:04:01.608Z,96333.28
2022-11-27T02:06:29.869Z,96333.28
2022-11-27T02:08:57.907Z,96327.47
2022-11-27T02:11:32.167Z,96325.78
2022-11-27T02:14:11.858Z,96325.44
2022-11-27T02:16:47.258Z,96317.88
2022-11-27T02:19:25.288Z,96316.09
2022-11-27T02:22:00.359Z,96307.38
2022-11-27T02:24:53.620Z,96302.84
2022-11-27T02:27:39.874Z,96301.78
2022-11-27T02:30:10.624Z,96302.09
2022-11-27T02:32:43.909Z,96293.63
2022-11-27T02:35:18.853Z,96294.31
2022-11-27T02:37:50.188Z,96288.47
2022-11-27T02:40:24.319Z,96282.00
2022-11-27T02:42:57.339Z,96280.59
2022-11-27T02:45:31.339Z,96275.31
2022-11-27T02:48:00.548Z,96281.69
2022-11-27T02:50:31.830Z,96271.84
2022-11-27T02:53:02.761Z,96268.31
2022-11-27T02:55:34.413Z,96259.66
2022-11-27T02:58:04.666Z,96258.47
2022-11-27T03:00:36.036Z,96256.44
2022-11-27T03:03:09.574Z,96252.94
2022-11-27T03:05:41.861Z,96244.38
2022-11-27T03:08:14.858Z,96238.66
2022-11-27T03:10:47.314Z,96237.88
2022-11-27T03:13:15.342Z,96228.75
2022-11-27T03:15:57.968Z,96216.69
2022-11-27T03:18:36.086Z,96225.81
2022-11-27T03:21:11.440Z,96234.69
2022-11-27T03:23:39.426Z,96234.88
2022-11-27T03:26:07.232Z,96229.53
2022-11-27T03:28:36.549Z,96234.50
2022-11-27T03:31:06.259Z,96228.69
2022-11-27T03:33:34.310Z,96223.06
2022-11-27T03:36:02.091Z,96212.50
2022-11-27T03:38:29.843Z,96218.53
2022-11-27T03:41:04.569Z,96211.97
2022-11-27T03:43:37.068Z,96212.38
2022-11-27T03:46:11.343Z,96212.78
2022-11-27T03:48:48.017Z,96210.81
2022-11-27T03:51:24.219Z,96208.03
2022-11-27T03:53:59.477Z,96201.56
2022-11-27T03:56:36.191Z,96197.59
2022-11-27T03:59:09.697Z,96202.53
2022-11-27T04:01:40.417Z,96199.50
2022-11-27T04:04:08.792Z,96198.69
2022-11-27T04:06:36.784Z,96198.25
2022-11-27T04:09:04.840Z,96191.56
2022-11-27T04:11:32.627Z,96190.72
2022-11-27T04:14:01.106Z,96197.03
2022-11-27T04:16:28.939Z,96207.06
2022-11-27T04:18:58.176Z,96202.78
2022-11-27T04:21:26.258Z,96199.44
2022-11-27T04:23:54.032Z,96201.72
2022-11-27T04:26:21.928Z,96206.88
2022-11-27T04:28:49.748Z,96205.97
2022-11-27T04:31:17.602Z,96209.94
2022-11-27T04:33:45.389Z,96199.31
2022-11-27T04:36:14.500Z,96203.56
2022-11-27T04:38:42.245Z,96198.25
2022-11-27T04:41:10.023Z,96205.50
2022-11-27T04:43:37.775Z,96200.34
2022-11-27T04:46:05.780Z,96199.19
2022-11-27T04:48:33.694Z,96201.97
2022-11-27T04:51:01.507Z,96203.34
2022-11-27T04:53:30.680Z,96205.75
2022-11-27T04:55:58.407Z,96205.06
2022-11-27T04:58:26.179Z,96201.69
2022-11-27T05:00:53.966Z,96203.53
2022-11-27T05:03:21.878Z,96204.75
2022-11-27T05:05:56.326Z,96198.66
2022-11-27T05:08:24.137Z,96207.47
2022-11-27T05:11:01.918Z,96200.75
2022-11-27T05:13:29.694Z,96199.19
2022-11-27T05:15:57.575Z,96198.78
2022-11-27T05:18:25.784Z,96199.44
2022-11-27T05:20:58.926Z,96194.94
2022-11-27T05:23:27.119Z,96189.84
2022-11-27T05:25:55.295Z,96196.09
2022-11-27T05:28:26.855Z,96197.78
2022-11-27T05:30:55.052Z,96199.78
2022-11-27T05:33:23.000Z,96203.28
2022-11-27T05:35:50.759Z,96198.22
2022-11-27T05:38:18.523Z,96204.00
2022-11-27T05:40:46.291Z,96203.47
2022-11-27T05:43:14.031Z,96198.06
2022-11-27T05:45:43.536Z,96192.22
2022-11-27T05:48:11.307Z,96188.44
2022-11-27T05:50:39.077Z,96162.41
2022-11-27T05:53:06.921Z,96186.53
2022-11-27T05:55:34.672Z,96189.53
2022-11-27T05:58:02.450Z,96186.31
2022-11-27T06:00:30.285Z,96184.47
2022-11-27T06:02:59.529Z,96196.28
2022-11-27T06:05:27.373Z,96197.41
2022-11-27T06:07:55.256Z,96196.31
2022-11-27T06:10:23.069Z,96191.63
2022-11-27T06:12:51.219Z,96185.25
2022-11-27T06:15:19.212Z,96166.31
2022-11-27T06:17:46.970Z,96166.09
2022-11-27T06:20:16.507Z,96154.00
2022-11-27T06:22:44.388Z,96155.97
2022-11-27T06:25:12.194Z,96165.38
2022-11-27T06:27:40.094Z,96168.16
2022-11-27T06:30:09.890Z,96179.22
2022-11-27T06:32:37.691Z,96180.09
2022-11-27T06:35:06.285Z,96193.91
2022-11-27T06:37:35.412Z,96180.94
2022-11-27T06:40:03.532Z,96180.16
2022-11-27T06:42:31.825Z,96178.97
2022-11-27T06:44:59.591Z,96178.75
2022-11-27T06:47:27.350Z,96177.69
2022-11-27T06:49:55.201Z,96175.06
2022-11-27T06:52:22.985Z,96165.38
2022-11-27T06:54:52.161Z,96162.28
2022-11-27T06:57:19.930Z,96164.41
2022-11-27T06:59:47.723Z,96163.72
2022-11-27T07:02:15.698Z,96164.47
2022-11-27T07:04:43.502Z,96166.19
2022-11-27T07:07:11.315Z,96161.31
2022-11-27T07:09:39.121Z,96160.75
2022-11-27T07:12:09.093Z,96160.94
2022-11-27T07:14:36.843Z,96159.06
2022-11-27T07:17:04.620Z,96157.91
2022-11-27T07:19:32.394Z,96158.84
2022-11-27T07:22:00.170Z,96153.75
2022-11-27T07:24:27.965Z,96150.72
2022-11-27T07:26:56.018Z,96151.66
2022-11-27T07:29:25.435Z,96152.47
2022-11-27T07:31:53.293Z,96149.31
2022-11-27T07:34:21.914Z,96144.44
2022-11-27T07:36:49.868Z,96147.38
2022-11-27T07:39:33.898Z,96157.84
2022-11-27T07:42:36.501Z,96152.47
2022-11-27T07:44:57.311Z,96137.53
2022-11-27T07:47:25.181Z,96151.28
2022-11-27T07:49:55.062Z,96141.00
2022-11-27T07:52:22.857Z,96133.53
2022-11-27T07:54:50.807Z,96133.78
2022-11-27T07:57:18.586Z,96130.19
2022-11-27T07:59:47.706Z,96129.69
2022-11-27T08:02:17.351Z,96127.72
2022-11-27T08:04:45.307Z,96130.19
2022-11-27T08:07:13.644Z,96130.84
2022-11-27T08:09:41.521Z,96132.59
2022-11-27T08:12:09.306Z,96127.56
2022-11-27T08:14:37.193Z,96129.44
2022-11-27T08:17:05.022Z,96122.63
2022-11-27T08:19:34.138Z,96126.66
2022-11-27T08:22:01.878Z,96121.03
2022-11-27T08:24:29.936Z,96121.56
2022-11-27T08:26:57.714Z,96116.09
2022-11-27T08:29:29.889Z,96110.38
2022-11-27T08:32:00.480Z,96101.94
2022-11-27T08:34:28.349Z,96105.66
2022-11-27T08:36:57.570Z,96113.84
2022-11-27T08:39:26.583Z,96111.44
2022-11-27T08:41:55.108Z,96100.47
2022-11-27T08:44:22.975Z,96105.94
2022-11-27T08:46:50.748Z,96104.59
2022-11-27T08:49:18.771Z,96130.38
2022-11-27T08:51:46.554Z,96115.94
2022-11-27T08:54:15.764Z,96106.25
2022-11-27T08:56:43.751Z,96109.47
2022-11-27T08:59:11.596Z,96107.06
2022-11-27T09:01:39.561Z,96099.69
2022-11-27T09:04:07.462Z,96115.47
2022-11-27T09:06:36.220Z,96091.78
2022-11-27T09:09:06.225Z,96094.78
2022-11-27T09:11:36.799Z,96094.66
2022-11-27T09:14:06.025Z,96096.63
2022-11-27T09:16:34.119Z,96100.94
2022-11-27T09:19:02.404Z,96105.59
2022-11-27T09:21:31.570Z,96098.16
2022-11-27T09:24:00.748Z,96103.56
2022-11-27T09:26:29.471Z,96092.09
2022-11-27T09:28:59.598Z,96093.78
2022-11-27T09:31:27.625Z,96091.47
2022-11-27T09:33:55.586Z,96094.44
2022-11-27T09:36:25.829Z,96087.47
2022-11-27T09:38:54.430Z,96075.91
2022-11-27T09:41:40.510Z,96075.03
2022-11-27T09:44:23.538Z,96066.75
2022-11-27T09:46:52.287Z,96067.38
2022-11-27T09:49:23.910Z,96062.00
2022-11-27T09:51:57.486Z,96046.88
2022-11-27T09:54:29.583Z,96042.63
2022-11-27T09:56:59.033Z,96030.25
2022-11-27T09:59:34.602Z,96034.75
2022-11-27T10:02:02.596Z,96029.97
2022-11-27T10:04:51.039Z,96028.56
2022-11-27T10:07:31.104Z,96018.06
2022-11-27T10:10:09.809Z,96020.88
2022-11-27T10:12:48.758Z,96023.97
2022-11-27T10:15:23.926Z,96013.16
2022-11-27T10:17:58.887Z,96016.31
2022-11-27T10:20:33.192Z,96007.91
2022-11-27T10:23:06.577Z,96005.94
2022-11-27T10:25:42.019Z,95997.78
2022-11-27T10:28:20.908Z,95998.47
2022-11-27T10:30:56.820Z,95995.50
2022-11-27T10:33:38.826Z,95982.16
2022-11-27T10:36:12.037Z,95984.31
2022-11-27T10:38:41.147Z,95983.16
2022-11-27T10:41:34.347Z,95986.13
2022-11-27T10:44:22.849Z,95990.44
2022-11-27T10:46:54.047Z,95972.09
2022-11-27T10:49:21.895Z,95973.66
2022-11-27T10:51:49.687Z,95974.16
2022-11-27T10:54:24.619Z,95974.47
2022-11-27T10:57:08.020Z,95973.63
2022-11-27T10:59:39.146Z,95971.56
2022-11-27T11:02:27.184Z,95973.66
2022-11-27T11:05:24.144Z,95963.91
2022-11-27T11:07:43.692Z,95960.00
2022-11-27T11:10:26.762Z,95959.09
2022-11-27T11:13:22.800Z,95958.28
2022-11-27T11:15:56.941Z,95964.22
2022-11-27T11:18:28.030Z,95961.16
2022-11-27T11:20:58.408Z,95963.66
2022-11-27T11:23:36.700Z,95963.94
2022-11-27T11:26:08.907Z,95968.53
2022-11-27T11:28:51.111Z,95963.75
2022-11-27T11:31:22.229Z,95957.22
2022-11-27T11:33:56.400Z,95960.56
2022-11-27T11:36:24.390Z,95944.44
2022-11-27T11:38:53.382Z,95945.72
2022-11-27T11:41:21.766Z,95940.44
2022-11-27T11:44:02.146Z,95947.38
2022-11-27T11:46:32.820Z,95935.63
2022-11-27T11:49:06.632Z,95938.41
2022-11-27T11:51:46.935Z,95938.97
2022-11-27T11:54:24.907Z,95941.09
2022-11-27T11:56:53.570Z,95935.94
2022-11-27T11:59:32.717Z,95942.13
2022-11-27T12:02:24.167Z,95927.13
2022-11-27T12:05:25.703Z,95936.56
2022-11-27T12:08:06.334Z,95933.72
2022-11-27T12:10:45.659Z,95917.66
2022-11-27T12:13:31.695Z,95911.81
2022-11-27T12:16:07.702Z,95919.06
2022-11-27T12:18:54.432Z,95923.41
2022-11-27T12:21:36.066Z,95912.84
2022-11-27T12:24:18.182Z,95906.19
2022-11-27T12:27:00.884Z,95905.59
2022-11-27T12:29:50.350Z,95893.66
2022-11-27T12:32:55.460Z,95894.66
2022-11-27T12:35:32.245Z,95892.06
2022-11-27T12:38:14.663Z,95885.84
2022-11-27T12:40:55.949Z,95882.00
2022-11-27T12:43:26.462Z,95889.56
2022-11-27T12:46:01.997Z,95882.44
2022-11-27T12:48:37.040Z,95894.03
2022-11-27T12:51:09.115Z,95868.03
2022-11-27T12:53:42.476Z,95853.63
2022-11-27T12:56:17.079Z,95847.72
2022-11-27T12:58:49.647Z,95853.22
2022-11-27T13:01:26.704Z,95851.41
2022-11-27T13:04:11.998Z,95860.06
2022-11-27T13:06:49.804Z,95857.47
2022-11-27T13:09:25.674Z,95848.97
2022-11-27T13:11:55.025Z,95840.78
2022-11-27T13:14:25.059Z,95840.09
2022-11-27T13:16:56.531Z,95835.47
2022-11-27T13:19:29.831Z,95843.81
2022-11-27T13:21:58.935Z,95840.22
2022-11-27T13:24:29.954Z,95830.56
2022-11-27T13:27:04.754Z,95825.59
2022-11-27T13:29:41.395Z,95833.56
2022-11-27T13:32:11.242Z,95836.56
2022-11-27T13:34:46.725Z,95829.44
2022-11-27T13:37:27.949Z,95829.59
2022-11-27T13:40:03.940Z,95828.56
2022-11-27T13:42:34.764Z,95823.25
2022-11-27T13:45:06.014Z,95822.28
2022-11-27T13:47:39.920Z,95819.16
2022-11-27T13:50:11.656Z,95819.69
2022-11-27T13:52:51.683Z,95822.53
2022-11-27T13:55:27.237Z,95828.97
2022-11-27T13:57:55.974Z,95813.66
2022-11-27T14:00:35.283Z,95815.19
2022-11-27T14:03:04.065Z,95808.06
2022-11-27T14:05:40.128Z,95808.72
2022-11-27T14:08:20.059Z,95800.88
2022-11-27T14:10:57.287Z,95796.28
2022-11-27T14:13:36.162Z,95789.38
2022-11-27T14:16:11.043Z,95792.75
2022-11-27T14:18:39.085Z,95788.16
2022-11-27T14:21:07.108Z,95800.16
2022-11-27T14:23:37.969Z,95790.69
2022-11-27T14:26:19.871Z,95797.84
2022-11-27T14:28:51.057Z,95796.00
2022-11-27T14:31:30.090Z,95792.22
2022-11-27T14:36:47.298Z,95795.25
2022-11-27T14:39:23.194Z,95785.53
2022-11-27T14:41:59.520Z,95799.63
2022-11-27T14:44:27.567Z,95781.91
2022-11-27T14:46:57.591Z,95778.09
2022-11-27T14:49:27.765Z,95771.03
2022-11-27T14:51:59.070Z,95763.06
2022-11-27T14:54:29.398Z,95762.56
2022-11-27T14:56:59.438Z,95762.13
2022-11-27T14:59:27.627Z,95740.41
2022-11-27T15:02:04.169Z,95751.88
2022-11-27T15:04:36.438Z,95748.56
2022-11-27T15:07:08.198Z,95751.47
2022-11-27T15:09:37.293Z,95754.00
2022-11-27T15:12:16.456Z,95746.81
2022-11-27T15:14:52.909Z,95740.41
2022-11-27T15:17:26.425Z,95739.47
2022-11-27T15:19:56.829Z,95738.66
2022-11-27T15:22:25.595Z,95743.31
2022-11-27T15:25:00.516Z,95738.38
2022-11-27T15:27:33.584Z,95734.25
2022-11-27T15:30:13.812Z,95718.63
2022-11-27T15:32:52.270Z,95729.03
2022-11-27T15:35:27.541Z,95722.63
2022-11-27T15:37:57.750Z,95711.84
2022-11-27T15:40:36.032Z,95717.47
2022-11-27T15:43:11.516Z,95721.19
2022-11-27T15:45:40.287Z,95696.50
2022-11-27T15:48:16.485Z,95687.06
2022-11-27T15:50:49.836Z,95690.81
2022-11-27T15:53:19.613Z,95699.97
2022-11-27T15:55:48.918Z,95682.81
2022-11-27T15:58:18.226Z,95686.94
2022-11-27T16:00:46.127Z,95683.72
2022-11-27T16:03:15.577Z,95677.50
2022-11-27T16:05:44.016Z,95679.22
2022-11-27T16:08:12.249Z,95679.09
2022-11-27T16:10:41.108Z,95679.59
2022-11-27T16:13:08.942Z,95678.16
2022-11-27T16:15:38.450Z,95673.63
2022-11-27T16:18:07.357Z,95674.56
2022-11-27T16:20:35.313Z,95669.50
2022-11-27T16:23:03.150Z,95670.94
2022-11-27T16:25:30.941Z,95666.38
2022-11-27T16:28:03.084Z,95666.63
2022-11-27T16:30:31.430Z,95649.81
2022-11-27T16:33:00.933Z,95656.31
2022-11-27T16:35:29.618Z,95645.91
2022-11-27T16:37:57.939Z,95647.69
2022-11-27T16:40:31.056Z,95643.66
2022-11-27T16:42:59.424Z,95643.91
2022-11-27T16:45:27.666Z,95639.94
2022-11-27T16:47:55.772Z,95630.91
2022-11-27T16:50:26.633Z,95625.91
2022-11-27T16:52:55.459Z,95624.06
2022-11-27T16:55:25.742Z,95633.00
2022-11-27T16:57:53.647Z,95601.69
2022-11-27T17:00:22.083Z,95601.00
2022-11-27T17:02:50.192Z,95604.34
2022-11-27T17:05:18.463Z,95591.28
2022-11-27T17:07:47.697Z,95591.72
2022-11-27T17:10:15.593Z,95588.56
2022-11-27T17:12:43.415Z,95589.34
2022-11-27T17:15:13.289Z,95584.28
2022-11-27T17:17:42.737Z,95583.25
2022-11-27T17:20:10.949Z,95570.97
2022-11-27T17:22:38.961Z,95572.31
2022-11-27T17:25:11.235Z,95556.72
2022-11-27T17:27:39.947Z,95570.00
2022-11-27T17:30:09.813Z,95561.81
2022-11-27T17:32:37.656Z,95559.28
2022-11-27T17:35:11.795Z,95566.34
2022-11-27T17:37:39.661Z,95568.47
2022-11-27T17:40:10.458Z,95568.31
2022-11-27T17:42:38.535Z,95559.31
2022-11-27T17:45:07.110Z,95558.88
2022-11-27T17:47:35.099Z,95565.84
2022-11-27T17:50:03.788Z,95555.84
2022-11-27T17:52:31.820Z,95552.28
2022-11-27T17:54:59.704Z,95547.81
2022-11-27T17:57:28.867Z,95534.34
2022-11-27T17:59:57.387Z,95545.31
2022-11-27T18:02:25.530Z,95530.16
2022-11-27T18:04:53.633Z,95540.56
2022-11-27T18:07:21.575Z,95542.56
2022-11-27T18:09:54.150Z,95544.56
2022-11-27T18:12:22.562Z,95537.28
2022-11-27T18:14:57.929Z,95533.34
2022-11-27T18:17:30.193Z,95523.25
2022-11-27T18:19:59.026Z,95509.22
2022-11-27T18:22:27.062Z,95515.19
2022-11-27T18:24:54.929Z,95515.31
2022-11-27T18:27:22.849Z,95516.13
2022-11-27T18:29:51.022Z,95513.19
2022-11-27T18:32:20.460Z,95504.19
2022-11-27T18:34:48.377Z,95493.84
2022-11-27T18:37:16.141Z,95494.59
2022-11-27T18:39:45.333Z,95483.41
2022-11-27T18:42:13.644Z,95493.78
2022-11-27T18:44:44.769Z,95481.94
2022-11-27T18:47:14.112Z,95483.13
2022-11-27T18:49:44.479Z,95477.44
2022-11-27T18:52:13.429Z,95474.44
2022-11-27T18:54:41.760Z,95471.09
2022-11-27T18:57:11.026Z,95476.19
2022-11-27T18:59:40.244Z,95475.28
2022-11-27T19:02:09.132Z,95465.31
2022-11-27T19:04:37.508Z,95462.53
2022-11-27T19:07:09.456Z,95461.03
2022-11-27T19:09:37.568Z,95457.31
2022-11-27T19:12:06.087Z,95444.69
2022-11-27T19:14:34.795Z,95444.97
2022-11-27T19:17:02.658Z,95441.22
2022-11-27T19:22:22.387Z,95433.94
2022-11-27T19:24:50.264Z,95433.00
2022-11-27T19:27:19.302Z,95443.25
2022-11-27T19:29:48.953Z,95450.56
2022-11-27T19:32:16.952Z,95452.84
2022-11-27T19:34:44.872Z,95445.25
2022-11-27T19:37:13.034Z,95448.31
2022-11-27T19:39:42.372Z,95449.94
2022-11-27T19:42:10.291Z,95436.63
2022-11-27T19:44:38.833Z,95439.81
2022-11-27T19:47:09.436Z,95438.88
2022-11-27T19:49:39.500Z,95432.88
2022-11-27T19:52:08.737Z,95426.91
2022-11-27T19:54:39.770Z,95423.56
2022-11-27T19:57:12.522Z,95430.50
2022-11-27T19:59:43.005Z,95410.41
2022-11-27T20:02:16.018Z,95404.72
2022-11-27T20:04:44.310Z,95392.47
2022-11-27T20:07:12.417Z,95395.94
2022-11-27T20:09:40.367Z,95381.03
2022-11-27T20:12:09.952Z,95377.84
2022-11-27T20:14:40.169Z,95379.03
2022-11-27T20:17:10.333Z,95383.97
2022-11-27T20:19:40.179Z,95401.13
2022-11-27T20:22:10.164Z,95393.28
2022-11-27T20:24:58.420Z,95393.41
2022-11-27T20:27:31.090Z,95388.47
2022-11-27T20:30:00.236Z,95394.19
2022-11-27T20:32:30.230Z,95377.31
2022-11-27T20:35:00.757Z,95364.94
2022-11-27T20:37:31.043Z,95369.34
2022-11-27T20:39:58.995Z,95370.28
2022-11-27T20:42:26.935Z,95367.34
2022-11-27T20:44:56.219Z,95356.03
2022-11-27T20:47:25.439Z,95353.78
2022-11-27T20:49:53.857Z,95351.66
2022-11-27T20:52:24.789Z,95350.03
2022-11-27T20:54:58.079Z,95332.09
2022-11-27T20:57:27.112Z,95339.81
2022-11-27T20:59:59.631Z,95326.94
2022-11-27T21:02:30.580Z,95326.50
2022-11-27T21:04:59.417Z,95321.47
2022-11-27T21:07:27.654Z,95325.31
2022-11-27T21:09:55.573Z,95316.41
2022-11-27T21:12:23.755Z,95305.91
2022-11-27T21:14:53.284Z,95300.47
2022-11-27T21:17:22.947Z,95300.88
2022-11-27T21:19:50.873Z,95298.22
2022-11-27T21:22:18.798Z,95289.16
2022-11-27T21:24:46.693Z,95279.72
2022-11-27T21:27:14.683Z,95296.59
2022-11-27T21:29:42.852Z,95290.06
2022-11-27T21:32:14.623Z,95281.97
2022-11-27T21:34:44.334Z,95278.50
2022-11-27T21:37:12.429Z,95285.28
2022-11-27T21:39:45.352Z,95273.19
2022-11-27T21:42:16.113Z,95278.50
2022-11-27T21:44:44.399Z,95279.16
2022-11-27T21:47:16.469Z,95275.03
2022-11-27T21:49:48.895Z,95284.34
2022-11-27T21:52:18.856Z,95277.72
2022-11-27T21:54:51.021Z,95272.13
2022-11-27T21:57:20.750Z,95261.69
2022-11-27T21:59:48.821Z,95265.03
2022-11-27T22:02:17.600Z,95271.06
2022-11-27T22:04:48.017Z,95278.16
2022-11-27T22:07:18.438Z,95267.34
2022-11-27T22:09:46.455Z,95267.47
2022-11-27T22:12:14.286Z,95259.63
2022-11-27T22:14:43.616Z,95258.00
2022-11-27T22:17:11.928Z,95266.28
2022-11-27T22:19:42.322Z,95250.78
2022-11-27T22:22:11.559Z,95249.50
2022-11-27T22:24:39.781Z,95251.25
2022-11-27T22:27:08.034Z,95236.63
2022-11-27T22:29:36.013Z,95233.81
2022-11-27T22:32:05.155Z,95224.78
2022-11-27T22:34:33.294Z,95217.72
2022-11-27T22:37:02.002Z,95219.94
2022-11-27T22:39:31.856Z,95225.84
2022-11-27T22:42:00.316Z,95228.09
2022-11-27T22:44:28.131Z,95227.56
2022-11-27T22:46:56.357Z,95228.31
2022-11-27T22:49:29.902Z,95222.72
2022-11-27T22:51:57.705Z,95222.44
2022-11-27T22:54:25.514Z,95232.41
2022-11-27T22:56:55.436Z,95222.56
2022-11-27T22:59:32.256Z,95210.31
2022-11-27T23:02:02.892Z,95208.69
2022-11-27T23:04:31.169Z,95195.13
2022-11-27T23:06:59.122Z,95199.94
2022-11-27T23:09:27.037Z,95197.38
2022-11-27T23:11:56.922Z,95196.84
2022-11-27T23:14:24.863Z,95192.47
2022-11-27T23:16:52.682Z,95183.69
2022-11-27T23:19:21.076Z,95194.06
2022-11-27T23:21:48.980Z,95188.53
2022-11-27T23:24:16.783Z,95179.50
2022-11-27T23:26:45.827Z,95182.16
2022-11-27T23:29:15.626Z,95179.34
2022-11-27T23:31:43.860Z,95179.44
2022-11-27T23:34:15.347Z,95184.47
2022-11-27T23:36:43.688Z,95186.88
2022-11-27T23:39:13.684Z,95173.03
2022-11-27T23:41:41.621Z,95166.50
2022-11-27T23:44:10.708Z,95159.88
2022-11-27T23:46:39.901Z,95168.09
2022-11-27T23:49:07.768Z,95167.66
2022-11-27T23:51:36.081Z,95165.59
2022-11-27T23:54:09.052Z,95166.69
2022-11-27T23:56:37.782Z,95150.97
2022-11-27T23:59:05.664Z,95155.63
